sensor_id;sensor_type;location;lat;lon;timestamp;temperature;humidity
49218;DHT22;35045;51.194;7.268;2023-12-28T00:01:38;7.70;99.90
49218;DHT22;35045;51.194;7.268;2023-12-28T00:04:05;7.70;99.90
49218;DHT22;35045;51.194;7.268;2023-12-28T00:06:31;7.70;99.90
49218;DHT22;35045;51.194;7.268;2023-12-28T00:08:57;7.70;99.90
49218;DHT22;35045;51.194;7.268;2023-12-28T00:11:29;7.60;99.90
49218;DHT22;35045;51.194;7.268;2023-12-28T00:13:55;7.60;99.90
49218;DHT22;35045;51.194;7.268;2023-12-28T00:16:21;7.50;99.90
49218;DHT22;35045;51.194;7.268;2023-12-28T00:18:47;7.50;99.90
49218;DHT22;35045;51.194;7.268;2023-12-28T00:21:14;7.50;99.90
49218;DHT22;35045;51.194;7.268;2023-12-28T00:23:40;7.50;99.90
49218;DHT22;35045;51.194;7.268;2023-12-28T00:26:06;7.50;99.90
49218;DHT22;35045;51.194;7.268;2023-12-28T00:28:32;7.40;99.90
49218;DHT22;35045;51.194;7.268;2023-12-28T00:30:58;7.40;99.90
49218;DHT22;35045;51.194;7.268;2023-12-28T00:33:24;7.40;99.90
49218;DHT22;35045;51.194;7.268;2023-12-28T00:35:51;7.30;99.90
49218;DHT22;35045;51.194;7.268;2023-12-28T00:38:17;7.30;99.90
49218;DHT22;35045;51.194;7.268;2023-12-28T00:40:43;7.20;99.90
49218;DHT22;35045;51.194;7.268;2023-12-28T00:43:09;7.30;99.90
49218;DHT22;35045;51.194;7.268;2023-12-28T00:45:35;7.30;99.90
49218;DHT22;35045;51.194;7.268;2023-12-28T00:48:02;7.20;99.90
49218;DHT22;35045;51.194;7.268;2023-12-28T00:50:28;7.20;99.90
49218;DHT22;35045;51.194;7.268;2023-12-28T00:52:57;7.30;99.90
49218;DHT22;35045;51.194;7.268;2023-12-28T00:55:23;7.30;99.90
49218;DHT22;35045;51.194;7.268;2023-12-28T00:57:50;7.30;99.90
49218;DHT22;35045;51.194;7.268;2023-12-28T01:00:16;7.30;99.90
49218;DHT22;35045;51.194;7.268;2023-12-28T01:02:42;7.30;99.90
49218;DHT22;35045;51.194;7.268;2023-12-28T01:05:09;7.30;99.90
49218;DHT22;35045;51.194;7.268;2023-12-28T01:07:35;7.30;99.90
49218;DHT22;35045;51.194;7.268;2023-12-28T01:10:01;7.40;99.90
49218;DHT22;35045;51.194;7.268;2023-12-28T01:12:28;7.40;99.90
49218;DHT22;35045;51.194;7.268;2023-12-28T01:14:54;7.50;99.90
49218;DHT22;35045;51.194;7.268;2023-12-28T01:17:20;7.50;99.90
49218;DHT22;35045;51.194;7.268;2023-12-28T01:19:46;7.50;99.90
49218;DHT22;35045;51.194;7.268;2023-12-28T01:22:13;7.50;99.90
49218;DHT22;35045;51.194;7.268;2023-12-28T01:24:39;7.50;99.90
49218;DHT22;35045;51.194;7.268;2023-12-28T01:27:05;7.60;99.90
49218;DHT22;35045;51.194;7.268;2023-12-28T01:29:31;7.60;99.90
49218;DHT22;35045;51.194;7.268;2023-12-28T01:31:58;7.60;99.90
49218;DHT22;35045;51.194;7.268;2023-12-28T01:34:24;7.70;99.90
49218;DHT22;35045;51.194;7.268;2023-12-28T01:36:51;7.70;99.90
49218;DHT22;35045;51.194;7.268;2023-12-28T01:39:17;7.70;99.90
49218;DHT22;35045;51.194;7.268;2023-12-28T01:41:44;7.80;99.90
49218;DHT22;35045;51.194;7.268;2023-12-28T01:44:12;7.80;99.90
49218;DHT22;35045;51.194;7.268;2023-12-28T01:46:39;7.80;99.90
49218;DHT22;35045;51.194;7.268;2023-12-28T01:49:05;7.80;99.90
49218;DHT22;35045;51.194;7.268;2023-12-28T01:51:32;7.90;99.90
49218;DHT22;35045;51.194;7.268;2023-12-28T01:53:59;7.90;99.90
49218;DHT22;35045;51.194;7.268;2023-12-28T01:56:26;7.90;99.90
49218;DHT22;35045;51.194;7.268;2023-12-28T01:58:53;8.00;99.90
49218;DHT22;35045;51.194;7.268;2023-12-28T02:01:20;7.90;99.90
49218;DHT22;35045;51.194;7.268;2023-12-28T02:03:46;8.00;99.90
49218;DHT22;35045;51.194;7.268;2023-12-28T02:06:13;8.00;99.90
49218;DHT22;35045;51.194;7.268;2023-12-28T02:08:42;8.00;99.90
49218;DHT22;35045;51.194;7.268;2023-12-28T02:11:08;8.00;99.90
49218;DHT22;35045;51.194;7.268;2023-12-28T02:13:35;8.10;99.90
49218;DHT22;35045;51.194;7.268;2023-12-28T02:16:06;8.10;99.90
49218;DHT22;35045;51.194;7.268;2023-12-28T02:18:47;8.00;99.90
49218;DHT22;35045;51.194;7.268;2023-12-28T02:21:15;8.00;99.90
49218;DHT22;35045;51.194;7.268;2023-12-28T02:23:48;8.10;99.90
49218;DHT22;35045;51.194;7.268;2023-12-28T02:26:16;8.10;99.90
49218;DHT22;35045;51.194;7.268;2023-12-28T02:28:46;8.10;99.90
49218;DHT22;35045;51.194;7.268;2023-12-28T02:31:37;8.10;99.90
49218;DHT22;35045;51.194;7.268;2023-12-28T02:34:10;8.10;99.90
49218;DHT22;35045;51.194;7.268;2023-12-28T02:36:41;8.10;99.90
49218;DHT22;35045;51.194;7.268;2023-12-28T02:39:08;8.10;99.90
49218;DHT22;35045;51.194;7.268;2023-12-28T02:41:35;8.10;99.90
49218;DHT22;35045;51.194;7.268;2023-12-28T02:44:03;8.10;99.90
49218;DHT22;35045;51.194;7.268;2023-12-28T02:46:29;8.20;99.90
49218;DHT22;35045;51.194;7.268;2023-12-28T02:48:55;8.20;99.90
49218;DHT22;35045;51.194;7.268;2023-12-28T02:51:23;8.20;99.90
49218;DHT22;35045;51.194;7.268;2023-12-28T02:53:49;8.20;99.90
49218;DHT22;35045;51.194;7.268;2023-12-28T02:56:16;8.20;99.90
49218;DHT22;35045;51.194;7.268;2023-12-28T02:58:43;8.30;99.90
49218;DHT22;35045;51.194;7.268;2023-12-28T03:01:09;8.30;99.90
49218;DHT22;35045;51.194;7.268;2023-12-28T03:03:35;8.30;99.90
49218;DHT22;35045;51.194;7.268;2023-12-28T03:06:01;8.40;99.90
49218;DHT22;35045;51.194;7.268;2023-12-28T03:08:27;8.40;99.90
49218;DHT22;35045;51.194;7.268;2023-12-28T03:10:53;8.40;99.90
49218;DHT22;35045;51.194;7.268;2023-12-28T03:13:21;8.50;99.90
49218;DHT22;35045;51.194;7.268;2023-12-28T03:15:48;8.40;99.90
49218;DHT22;35045;51.194;7.268;2023-12-28T03:18:14;8.50;99.90
49218;DHT22;35045;51.194;7.268;2023-12-28T03:20:40;8.40;99.90
49218;DHT22;35045;51.194;7.268;2023-12-28T03:23:06;8.50;99.90
49218;DHT22;35045;51.194;7.268;2023-12-28T03:25:33;8.50;99.90
49218;DHT22;35045;51.194;7.268;2023-12-28T03:27:59;8.50;99.90
49218;DHT22;35045;51.194;7.268;2023-12-28T03:30:25;8.60;99.90
49218;DHT22;35045;51.194;7.268;2023-12-28T03:32:51;8.60;99.90
49218;DHT22;35045;51.194;7.268;2023-12-28T03:35:18;8.50;99.90
49218;DHT22;35045;51.194;7.268;2023-12-28T03:37:44;8.60;99.90
49218;DHT22;35045;51.194;7.268;2023-12-28T03:40:10;8.60;99.90
49218;DHT22;35045;51.194;7.268;2023-12-28T03:42:37;8.50;99.90
49218;DHT22;35045;51.194;7.268;2023-12-28T03:45:04;8.50;99.90
49218;DHT22;35045;51.194;7.268;2023-12-28T03:47:31;8.50;99.90
49218;DHT22;35045;51.194;7.268;2023-12-28T03:49:57;8.60;99.90
49218;DHT22;35045;51.194;7.268;2023-12-28T03:52:26;8.60;99.90
49218;DHT22;35045;51.194;7.268;2023-12-28T03:54:53;8.60;99.90
49218;DHT22;35045;51.194;7.268;2023-12-28T03:57:19;8.60;99.90
49218;DHT22;35045;51.194;7.268;2023-12-28T03:59:45;8.60;99.90
49218;DHT22;35045;51.194;7.268;2023-12-28T04:02:13;8.60;99.90
49218;DHT22;35045;51.194;7.268;2023-12-28T04:04:40;8.60;99.90
49218;DHT22;35045;51.194;7.268;2023-12-28T04:07:06;8.60;99.90
49218;DHT22;35045;51.194;7.268;2023-12-28T04:09:36;8.60;99.90
49218;DHT22;35045;51.194;7.268;2023-12-28T04:12:02;8.60;99.90
49218;DHT22;35045;51.194;7.268;2023-12-28T04:14:28;8.60;99.90
49218;DHT22;35045;51.194;7.268;2023-12-28T04:16:55;8.60;99.90
49218;DHT22;35045;51.194;7.268;2023-12-28T04:19:21;8.50;99.90
49218;DHT22;35045;51.194;7.268;2023-12-28T04:21:47;8.50;99.90
49218;DHT22;35045;51.194;7.268;2023-12-28T04:24:13;8.50;99.90
49218;DHT22;35045;51.194;7.268;2023-12-28T04:26:39;8.50;99.90
49218;DHT22;35045;51.194;7.268;2023-12-28T04:29:06;8.50;99.90
49218;DHT22;35045;51.194;7.268;2023-12-28T04:31:33;8.50;99.90
49218;DHT22;35045;51.194;7.268;2023-12-28T04:33:59;8.40;99.90
49218;DHT22;35045;51.194;7.268;2023-12-28T04:36:26;8.50;99.90
49218;DHT22;35045;51.194;7.268;2023-12-28T04:38:52;8.40;99.90
49218;DHT22;35045;51.194;7.268;2023-12-28T04:41:19;8.40;99.90
49218;DHT22;35045;51.194;7.268;2023-12-28T04:43:45;8.40;99.90
49218;DHT22;35045;51.194;7.268;2023-12-28T04:46:11;8.40;99.90
49218;DHT22;35045;51.194;7.268;2023-12-28T04:48:37;8.30;99.90
49218;DHT22;35045;51.194;7.268;2023-12-28T04:51:04;8.30;99.90
49218;DHT22;35045;51.194;7.268;2023-12-28T04:53:30;8.30;99.90
49218;DHT22;35045;51.194;7.268;2023-12-28T04:55:56;8.20;99.90
49218;DHT22;35045;51.194;7.268;2023-12-28T04:58:22;8.20;99.90
49218;DHT22;35045;51.194;7.268;2023-12-28T05:00:49;8.20;99.90
49218;DHT22;35045;51.194;7.268;2023-12-28T05:03:15;8.10;99.90
49218;DHT22;35045;51.194;7.268;2023-12-28T05:05:41;8.00;99.90
49218;DHT22;35045;51.194;7.268;2023-12-28T05:08:07;8.00;99.90
49218;DHT22;35045;51.194;7.268;2023-12-28T05:10:34;8.00;99.90
49218;DHT22;35045;51.194;7.268;2023-12-28T05:13:00;7.90;99.90
49218;DHT22;35045;51.194;7.268;2023-12-28T05:15:26;7.90;99.90
49218;DHT22;35045;51.194;7.268;2023-12-28T05:17:52;7.90;99.90
49218;DHT22;35045;51.194;7.268;2023-12-28T05:20:19;8.00;99.90
49218;DHT22;35045;51.194;7.268;2023-12-28T05:22:45;8.00;99.90
49218;DHT22;35045;51.194;7.268;2023-12-28T05:25:11;8.00;99.90
49218;DHT22;35045;51.194;7.268;2023-12-28T05:27:38;8.00;99.90
49218;DHT22;35045;51.194;7.268;2023-12-28T05:30:04;8.00;99.90
49218;DHT22;35045;51.194;7.268;2023-12-28T05:32:31;8.10;99.90
49218;DHT22;35045;51.194;7.268;2023-12-28T05:34:57;8.10;99.90
49218;DHT22;35045;51.194;7.268;2023-12-28T05:37:23;8.10;99.90
49218;DHT22;35045;51.194;7.268;2023-12-28T05:39:49;8.10;99.90
49218;DHT22;35045;51.194;7.268;2023-12-28T05:42:16;8.10;99.90
49218;DHT22;35045;51.194;7.268;2023-12-28T05:44:42;8.10;99.90
49218;DHT22;35045;51.194;7.268;2023-12-28T05:47:08;8.10;99.90
49218;DHT22;35045;51.194;7.268;2023-12-28T05:49:34;8.10;99.90
49218;DHT22;35045;51.194;7.268;2023-12-28T05:52:00;8.10;99.90
49218;DHT22;35045;51.194;7.268;2023-12-28T05:54:27;8.10;99.90
49218;DHT22;35045;51.194;7.268;2023-12-28T05:56:53;8.10;99.90
49218;DHT22;35045;51.194;7.268;2023-12-28T05:59:19;8.10;99.90
49218;DHT22;35045;51.194;7.268;2023-12-28T06:01:47;8.20;99.90
49218;DHT22;35045;51.194;7.268;2023-12-28T06:04:13;8.20;99.90
49218;DHT22;35045;51.194;7.268;2023-12-28T06:06:40;8.20;99.90
49218;DHT22;35045;51.194;7.268;2023-12-28T06:09:06;8.30;99.90
49218;DHT22;35045;51.194;7.268;2023-12-28T06:11:33;8.30;99.90
49218;DHT22;35045;51.194;7.268;2023-12-28T06:13:59;8.20;99.90
49218;DHT22;35045;51.194;7.268;2023-12-28T06:16:26;8.30;99.90
49218;DHT22;35045;51.194;7.268;2023-12-28T06:18:52;8.30;99.90
49218;DHT22;35045;51.194;7.268;2023-12-28T06:21:18;8.20;99.90
49218;DHT22;35045;51.194;7.268;2023-12-28T06:23:45;8.30;99.90
49218;DHT22;35045;51.194;7.268;2023-12-28T06:26:11;8.30;99.90
49218;DHT22;35045;51.194;7.268;2023-12-28T06:28:37;8.30;99.90
49218;DHT22;35045;51.194;7.268;2023-12-28T06:31:03;8.40;99.90
49218;DHT22;35045;51.194;7.268;2023-12-28T06:33:30;8.40;99.90
49218;DHT22;35045;51.194;7.268;2023-12-28T06:35:57;8.40;99.90
49218;DHT22;35045;51.194;7.268;2023-12-28T06:38:24;8.40;99.90
49218;DHT22;35045;51.194;7.268;2023-12-28T06:40:51;8.50;99.90
49218;DHT22;35045;51.194;7.268;2023-12-28T06:43:17;8.40;99.90
49218;DHT22;35045;51.194;7.268;2023-12-28T06:45:43;8.40;99.90
49218;DHT22;35045;51.194;7.268;2023-12-28T06:48:10;8.40;99.90
49218;DHT22;35045;51.194;7.268;2023-12-28T06:50:36;8.40;99.90
49218;DHT22;35045;51.194;7.268;2023-12-28T06:53:02;8.50;99.90
49218;DHT22;35045;51.194;7.268;2023-12-28T06:55:29;8.50;99.90
49218;DHT22;35045;51.194;7.268;2023-12-28T06:57:55;8.50;99.90
49218;DHT22;35045;51.194;7.268;2023-12-28T07:00:21;8.50;99.90
49218;DHT22;35045;51.194;7.268;2023-12-28T07:02:48;8.50;99.90
49218;DHT22;35045;51.194;7.268;2023-12-28T07:05:14;8.50;99.90
49218;DHT22;35045;51.194;7.268;2023-12-28T07:07:40;8.50;99.90
49218;DHT22;35045;51.194;7.268;2023-12-28T07:10:06;8.50;99.90
49218;DHT22;35045;51.194;7.268;2023-12-28T07:12:33;8.50;99.90
49218;DHT22;35045;51.194;7.268;2023-12-28T07:14:59;8.50;99.90
49218;DHT22;35045;51.194;7.268;2023-12-28T07:17:25;8.50;99.90
49218;DHT22;35045;51.194;7.268;2023-12-28T07:19:51;8.60;99.90
49218;DHT22;35045;51.194;7.268;2023-12-28T07:22:18;8.60;99.90
49218;DHT22;35045;51.194;7.268;2023-12-28T07:24:44;8.50;99.90
49218;DHT22;35045;51.194;7.268;2023-12-28T07:27:10;8.50;99.90
49218;DHT22;35045;51.194;7.268;2023-12-28T07:29:36;8.60;99.90
49218;DHT22;35045;51.194;7.268;2023-12-28T07:32:03;8.60;99.90
49218;DHT22;35045;51.194;7.268;2023-12-28T07:34:30;8.60;99.90
49218;DHT22;35045;51.194;7.268;2023-12-28T07:36:56;8.60;99.90
49218;DHT22;35045;51.194;7.268;2023-12-28T07:39:22;8.60;99.90
49218;DHT22;35045;51.194;7.268;2023-12-28T07:41:48;8.60;99.90
49218;DHT22;35045;51.194;7.268;2023-12-28T07:44:15;8.60;99.90
49218;DHT22;35045;51.194;7.268;2023-12-28T07:46:43;8.60;99.90
49218;DHT22;35045;51.194;7.268;2023-12-28T07:49:09;8.60;99.90
49218;DHT22;35045;51.194;7.268;2023-12-28T07:51:35;8.60;99.90
49218;DHT22;35045;51.194;7.268;2023-12-28T07:54:01;8.60;99.90
49218;DHT22;35045;51.194;7.268;2023-12-28T07:56:28;8.60;99.90
49218;DHT22;35045;51.194;7.268;2023-12-28T07:58:54;8.60;99.90
49218;DHT22;35045;51.194;7.268;2023-12-28T08:01:22;8.60;99.90
49218;DHT22;35045;51.194;7.268;2023-12-28T08:03:48;8.60;99.90
49218;DHT22;35045;51.194;7.268;2023-12-28T08:06:14;8.60;99.90
49218;DHT22;35045;51.194;7.268;2023-12-28T08:08:40;8.60;99.90
49218;DHT22;35045;51.194;7.268;2023-12-28T08:11:06;8.70;99.90
49218;DHT22;35045;51.194;7.268;2023-12-28T08:13:33;8.60;99.90
49218;DHT22;35045;51.194;7.268;2023-12-28T08:15:59;8.60;99.90
49218;DHT22;35045;51.194;7.268;2023-12-28T08:18:25;8.70;99.90
49218;DHT22;35045;51.194;7.268;2023-12-28T08:20:52;8.70;99.90
49218;DHT22;35045;51.194;7.268;2023-12-28T08:23:18;8.70;99.90
49218;DHT22;35045;51.194;7.268;2023-12-28T08:25:44;8.70;99.90
49218;DHT22;35045;51.194;7.268;2023-12-28T08:28:11;8.70;99.90
49218;DHT22;35045;51.194;7.268;2023-12-28T08:30:37;8.70;99.90
49218;DHT22;35045;51.194;7.268;2023-12-28T08:33:04;8.80;99.90
49218;DHT22;35045;51.194;7.268;2023-12-28T08:35:30;8.70;99.90
49218;DHT22;35045;51.194;7.268;2023-12-28T08:37:56;8.70;99.90
49218;DHT22;35045;51.194;7.268;2023-12-28T08:40:22;8.70;99.90
49218;DHT22;35045;51.194;7.268;2023-12-28T08:42:48;8.70;99.90
49218;DHT22;35045;51.194;7.268;2023-12-28T08:45:15;8.70;99.90
49218;DHT22;35045;51.194;7.268;2023-12-28T08:47:41;8.70;99.90
49218;DHT22;35045;51.194;7.268;2023-12-28T08:50:07;8.70;99.90
49218;DHT22;35045;51.194;7.268;2023-12-28T08:52:34;8.70;99.90
49218;DHT22;35045;51.194;7.268;2023-12-28T08:55:00;8.80;99.90
49218;DHT22;35045;51.194;7.268;2023-12-28T08:57:28;8.80;99.90
49218;DHT22;35045;51.194;7.268;2023-12-28T08:59:56;8.80;99.90
49218;DHT22;35045;51.194;7.268;2023-12-28T09:02:27;8.90;99.90
49218;DHT22;35045;51.194;7.268;2023-12-28T09:04:54;8.80;99.90
49218;DHT22;35045;51.194;7.268;2023-12-28T09:07:20;8.80;99.90
49218;DHT22;35045;51.194;7.268;2023-12-28T09:09:46;8.90;99.90
49218;DHT22;35045;51.194;7.268;2023-12-28T09:12:12;8.90;99.90
49218;DHT22;35045;51.194;7.268;2023-12-28T09:14:38;8.90;99.90
49218;DHT22;35045;51.194;7.268;2023-12-28T09:17:05;8.90;99.90
49218;DHT22;35045;51.194;7.268;2023-12-28T09:19:31;9.00;99.90
49218;DHT22;35045;51.194;7.268;2023-12-28T09:21:57;9.00;99.90
49218;DHT22;35045;51.194;7.268;2023-12-28T09:24:23;9.20;99.90
49218;DHT22;35045;51.194;7.268;2023-12-28T09:26:50;9.30;99.90
49218;DHT22;35045;51.194;7.268;2023-12-28T09:29:16;9.30;99.90
49218;DHT22;35045;51.194;7.268;2023-12-28T09:31:42;9.40;99.90
49218;DHT22;35045;51.194;7.268;2023-12-28T09:34:08;9.40;99.90
49218;DHT22;35045;51.194;7.268;2023-12-28T09:36:34;9.40;99.90
49218;DHT22;35045;51.194;7.268;2023-12-28T09:39:01;9.50;99.90
49218;DHT22;35045;51.194;7.268;2023-12-28T09:41:30;9.60;99.90
49218;DHT22;35045;51.194;7.268;2023-12-28T09:44:13;9.60;99.90
49218;DHT22;35045;51.194;7.268;2023-12-28T09:46:43;9.60;99.90
49218;DHT22;35045;51.194;7.268;2023-12-28T09:49:11;9.80;99.90
49218;DHT22;35045;51.194;7.268;2023-12-28T09:51:37;9.90;99.90
49218;DHT22;35045;51.194;7.268;2023-12-28T09:54:03;9.90;99.90
49218;DHT22;35045;51.194;7.268;2023-12-28T09:56:32;9.70;99.90
49218;DHT22;35045;51.194;7.268;2023-12-28T09:58:59;9.70;99.90
49218;DHT22;35045;51.194;7.268;2023-12-28T10:01:26;9.60;99.90
49218;DHT22;35045;51.194;7.268;2023-12-28T10:03:52;9.60;99.90
49218;DHT22;35045;51.194;7.268;2023-12-28T10:06:19;9.60;99.90
49218;DHT22;35045;51.194;7.268;2023-12-28T10:08:48;9.50;99.90
49218;DHT22;35045;51.194;7.268;2023-12-28T10:11:16;9.60;99.90
49218;DHT22;35045;51.194;7.268;2023-12-28T10:13:43;9.60;99.90
49218;DHT22;35045;51.194;7.268;2023-12-28T10:16:10;9.60;99.90
49218;DHT22;35045;51.194;7.268;2023-12-28T10:18:41;9.70;99.90
49218;DHT22;35045;51.194;7.268;2023-12-28T10:21:08;9.80;99.90
49218;DHT22;35045;51.194;7.268;2023-12-28T10:23:35;9.80;99.90
49218;DHT22;35045;51.194;7.268;2023-12-28T10:26:03;9.90;99.90
49218;DHT22;35045;51.194;7.268;2023-12-28T10:28:35;9.90;99.90
49218;DHT22;35045;51.194;7.268;2023-12-28T10:31:03;10.00;99.90
49218;DHT22;35045;51.194;7.268;2023-12-28T10:33:37;10.10;99.90
49218;DHT22;35045;51.194;7.268;2023-12-28T10:36:06;10.10;99.90
49218;DHT22;35045;51.194;7.268;2023-12-28T10:38:35;10.10;99.90
49218;DHT22;35045;51.194;7.268;2023-12-28T10:41:07;10.20;99.90
49218;DHT22;35045;51.194;7.268;2023-12-28T10:43:42;10.30;99.90
49218;DHT22;35045;51.194;7.268;2023-12-28T10:46:26;10.30;99.90
49218;DHT22;35045;51.194;7.268;2023-12-28T10:49:01;10.50;99.90
49218;DHT22;35045;51.194;7.268;2023-12-28T10:51:34;10.50;99.90
49218;DHT22;35045;51.194;7.268;2023-12-28T10:56:52;10.60;99.90
49218;DHT22;35045;51.194;7.268;2023-12-28T10:59:39;10.60;99.90
49218;DHT22;35045;51.194;7.268;2023-12-28T11:02:08;10.70;99.90
49218;DHT22;35045;51.194;7.268;2023-12-28T11:04:44;10.80;99.90
49218;DHT22;35045;51.194;7.268;2023-12-28T11:07:14;10.80;99.90
49218;DHT22;35045;51.194;7.268;2023-12-28T11:09:41;10.70;99.90
49218;DHT22;35045;51.194;7.268;2023-12-28T11:12:08;10.70;99.90
49218;DHT22;35045;51.194;7.268;2023-12-28T11:14:42;10.70;99.90
49218;DHT22;35045;51.194;7.268;2023-12-28T11:17:11;10.70;99.90
49218;DHT22;35045;51.194;7.268;2023-12-28T11:19:38;10.70;99.90
49218;DHT22;35045;51.194;7.268;2023-12-28T11:22:05;10.60;99.90
49218;DHT22;35045;51.194;7.268;2023-12-28T11:24:34;10.60;99.90
49218;DHT22;35045;51.194;7.268;2023-12-28T11:27:00;10.60;99.90
49218;DHT22;35045;51.194;7.268;2023-12-28T11:29:29;10.70;99.90
49218;DHT22;35045;51.194;7.268;2023-12-28T11:31:59;10.70;99.90
49218;DHT22;35045;51.194;7.268;2023-12-28T11:34:28;10.70;99.90
49218;DHT22;35045;51.194;7.268;2023-12-28T11:37:00;10.70;99.90
49218;DHT22;35045;51.194;7.268;2023-12-28T11:39:36;10.70;99.90
49218;DHT22;35045;51.194;7.268;2023-12-28T11:42:08;10.60;99.90
49218;DHT22;35045;51.194;7.268;2023-12-28T11:44:42;10.60;99.90
49218;DHT22;35045;51.194;7.268;2023-12-28T11:47:36;10.70;99.90
49218;DHT22;35045;51.194;7.268;2023-12-28T11:50:08;10.90;99.90
49218;DHT22;35045;51.194;7.268;2023-12-28T11:52:35;10.90;99.90
49218;DHT22;35045;51.194;7.268;2023-12-28T11:55:01;10.90;99.90
49218;DHT22;35045;51.194;7.268;2023-12-28T11:57:27;11.00;99.90
49218;DHT22;35045;51.194;7.268;2023-12-28T11:59:56;11.00;99.90
49218;DHT22;35045;51.194;7.268;2023-12-28T12:02:23;11.00;99.90
49218;DHT22;35045;51.194;7.268;2023-12-28T12:04:54;11.00;99.90
49218;DHT22;35045;51.194;7.268;2023-12-28T12:07:20;10.90;99.90
49218;DHT22;35045;51.194;7.268;2023-12-28T12:09:47;11.00;99.90
49218;DHT22;35045;51.194;7.268;2023-12-28T12:12:16;11.10;99.90
49218;DHT22;35045;51.194;7.268;2023-12-28T12:14:42;11.10;99.90
49218;DHT22;35045;51.194;7.268;2023-12-28T12:17:09;11.10;99.90
49218;DHT22;35045;51.194;7.268;2023-12-28T12:19:35;11.10;99.90
49218;DHT22;35045;51.194;7.268;2023-12-28T12:22:01;11.20;99.90
49218;DHT22;35045;51.194;7.268;2023-12-28T12:24:28;11.20;99.90
49218;DHT22;35045;51.194;7.268;2023-12-28T12:26:55;11.10;99.90
49218;DHT22;35045;51.194;7.268;2023-12-28T12:29:21;11.20;99.90
49218;DHT22;35045;51.194;7.268;2023-12-28T12:31:51;11.20;99.90
49218;DHT22;35045;51.194;7.268;2023-12-28T12:34:18;11.10;99.90
49218;DHT22;35045;51.194;7.268;2023-12-28T12:36:44;11.10;99.90
49218;DHT22;35045;51.194;7.268;2023-12-28T12:39:10;11.10;99.90
49218;DHT22;35045;51.194;7.268;2023-12-28T12:41:39;11.10;99.90
49218;DHT22;35045;51.194;7.268;2023-12-28T12:44:07;11.10;99.90
49218;DHT22;35045;51.194;7.268;2023-12-28T12:46:36;11.10;99.90
49218;DHT22;35045;51.194;7.268;2023-12-28T12:49:02;11.00;99.90
49218;DHT22;35045;51.194;7.268;2023-12-28T12:51:29;10.90;99.90
49218;DHT22;35045;51.194;7.268;2023-12-28T12:53:59;11.00;99.90
49218;DHT22;35045;51.194;7.268;2023-12-28T12:56:29;11.00;99.90
49218;DHT22;35045;51.194;7.268;2023-12-28T12:58:56;11.00;99.90
49218;DHT22;35045;51.194;7.268;2023-12-28T13:01:23;10.90;99.90
49218;DHT22;35045;51.194;7.268;2023-12-28T13:03:52;10.90;99.90
49218;DHT22;35045;51.194;7.268;2023-12-28T13:06:19;11.10;99.90
49218;DHT22;35045;51.194;7.268;2023-12-28T13:08:49;11.20;99.90
49218;DHT22;35045;51.194;7.268;2023-12-28T13:11:15;11.20;99.90
49218;DHT22;35045;51.194;7.268;2023-12-28T13:13:41;11.20;99.90
49218;DHT22;35045;51.194;7.268;2023-12-28T13:16:07;11.20;99.90
49218;DHT22;35045;51.194;7.268;2023-12-28T13:18:34;11.20;99.90
49218;DHT22;35045;51.194;7.268;2023-12-28T13:21:02;11.30;99.90
49218;DHT22;35045;51.194;7.268;2023-12-28T13:23:28;11.40;99.90
49218;DHT22;35045;51.194;7.268;2023-12-28T13:25:55;11.30;99.90
49218;DHT22;35045;51.194;7.268;2023-12-28T13:28:21;11.30;99.90
49218;DHT22;35045;51.194;7.268;2023-12-28T13:30:47;11.20;99.90
49218;DHT22;35045;51.194;7.268;2023-12-28T13:33:15;11.20;99.90
49218;DHT22;35045;51.194;7.268;2023-12-28T13:35:41;11.10;99.90
49218;DHT22;35045;51.194;7.268;2023-12-28T13:38:07;11.00;99.90
49218;DHT22;35045;51.194;7.268;2023-12-28T13:40:34;11.00;99.90
49218;DHT22;35045;51.194;7.268;2023-12-28T13:43:00;10.90;99.90
49218;DHT22;35045;51.194;7.268;2023-12-28T13:45:27;10.90;99.90
49218;DHT22;35045;51.194;7.268;2023-12-28T13:47:53;10.90;99.90
49218;DHT22;35045;51.194;7.268;2023-12-28T13:50:19;10.90;99.90
49218;DHT22;35045;51.194;7.268;2023-12-28T13:52:46;10.90;99.90
49218;DHT22;35045;51.194;7.268;2023-12-28T13:55:12;10.80;99.90
49218;DHT22;35045;51.194;7.268;2023-12-28T13:57:39;10.70;99.90
49218;DHT22;35045;51.194;7.268;2023-12-28T14:00:06;10.70;99.90
49218;DHT22;35045;51.194;7.268;2023-12-28T14:02:32;10.70;99.90
49218;DHT22;35045;51.194;7.268;2023-12-28T14:04:59;10.70;99.90
49218;DHT22;35045;51.194;7.268;2023-12-28T14:07:25;10.60;99.90
49218;DHT22;35045;51.194;7.268;2023-12-28T14:09:52;10.60;99.90
49218;DHT22;35045;51.194;7.268;2023-12-28T14:12:18;10.60;99.90
49218;DHT22;35045;51.194;7.268;2023-12-28T14:14:45;10.70;99.90
49218;DHT22;35045;51.194;7.268;2023-12-28T14:17:11;10.70;99.90
49218;DHT22;35045;51.194;7.268;2023-12-28T14:19:37;10.60;99.90
49218;DHT22;35045;51.194;7.268;2023-12-28T14:22:03;10.60;99.90
49218;DHT22;35045;51.194;7.268;2023-12-28T14:24:30;10.60;99.90
49218;DHT22;35045;51.194;7.268;2023-12-28T14:26:57;10.60;99.90
49218;DHT22;35045;51.194;7.268;2023-12-28T14:29:23;10.60;99.90
49218;DHT22;35045;51.194;7.268;2023-12-28T14:31:50;10.50;99.90
49218;DHT22;35045;51.194;7.268;2023-12-28T14:34:17;10.50;99.90
49218;DHT22;35045;51.194;7.268;2023-12-28T14:36:44;10.40;99.90
49218;DHT22;35045;51.194;7.268;2023-12-28T14:39:16;10.40;99.90
49218;DHT22;35045;51.194;7.268;2023-12-28T14:41:45;10.30;99.90
49218;DHT22;35045;51.194;7.268;2023-12-28T14:44:12;10.30;99.90
49218;DHT22;35045;51.194;7.268;2023-12-28T14:46:38;10.20;99.90
49218;DHT22;35045;51.194;7.268;2023-12-28T14:49:04;10.20;99.90
49218;DHT22;35045;51.194;7.268;2023-12-28T14:51:31;10.20;99.90
49218;DHT22;35045;51.194;7.268;2023-12-28T14:53:57;10.10;99.90
49218;DHT22;35045;51.194;7.268;2023-12-28T14:56:23;10.10;99.90
49218;DHT22;35045;51.194;7.268;2023-12-28T14:58:51;10.10;99.90
49218;DHT22;35045;51.194;7.268;2023-12-28T15:01:18;10.10;99.90
49218;DHT22;35045;51.194;7.268;2023-12-28T15:03:46;10.00;99.90
49218;DHT22;35045;51.194;7.268;2023-12-28T15:06:12;10.00;99.90
49218;DHT22;35045;51.194;7.268;2023-12-28T15:08:39;9.90;99.90
49218;DHT22;35045;51.194;7.268;2023-12-28T15:11:05;9.80;99.90
49218;DHT22;35045;51.194;7.268;2023-12-28T15:13:39;9.80;99.90
49218;DHT22;35045;51.194;7.268;2023-12-28T15:16:06;9.80;99.90
49218;DHT22;35045;51.194;7.268;2023-12-28T15:18:33;9.80;99.90
49218;DHT22;35045;51.194;7.268;2023-12-28T15:21:00;9.80;99.90
49218;DHT22;35045;51.194;7.268;2023-12-28T15:23:27;9.70;99.90
49218;DHT22;35045;51.194;7.268;2023-12-28T15:25:53;9.70;99.90
49218;DHT22;35045;51.194;7.268;2023-12-28T15:28:20;9.70;99.90
49218;DHT22;35045;51.194;7.268;2023-12-28T15:30:46;9.70;99.90
49218;DHT22;35045;51.194;7.268;2023-12-28T15:33:13;9.70;99.90
49218;DHT22;35045;51.194;7.268;2023-12-28T15:35:39;9.80;99.90
49218;DHT22;35045;51.194;7.268;2023-12-28T15:38:05;9.90;99.90
49218;DHT22;35045;51.194;7.268;2023-12-28T15:40:31;9.80;99.90
49218;DHT22;35045;51.194;7.268;2023-12-28T15:42:58;9.80;99.90
49218;DHT22;35045;51.194;7.268;2023-12-28T15:45:24;9.70;99.90